sensor_id;sensor_type;location;lat;lon;timestamp;P1;durP1;ratioP1;P2;durP2;ratioP2
20122;SDS011;10222;50.848;4.336;2023-02-26T00:01:14;10.00;;;1.50;;
20122;SDS011;10222;50.848;4.336;2023-02-26T00:03:47;2.50;;;1.30;;
20122;SDS011;10222;50.848;4.336;2023-02-26T00:06:14;2.53;;;1.30;;
20122;SDS011;10222;50.848;4.336;2023-02-26T00:08:41;2.63;;;1.60;;
20122;SDS011;10222;50.848;4.336;2023-02-26T00:13:37;5.07;;;1.73;;
20122;SDS011;10222;50.848;4.336;2023-02-26T00:16:04;12.27;;;1.57;;
20122;SDS011;10222;50.848;4.336;2023-02-26T00:18:31;2.90;;;1.53;;
20122;SDS011;10222;50.848;4.336;2023-02-26T00:21:03;1.37;;;1.23;;
20122;SDS011;10222;50.848;4.336;2023-02-26T00:23:30;6.40;;;1.67;;
20122;SDS011;10222;50.848;4.336;2023-02-26T00:25:59;3.70;;;1.30;;
20122;SDS011;10222;50.848;4.336;2023-02-26T00:30:57;3.77;;;1.77;;
20122;SDS011;10222;50.848;4.336;2023-02-26T00:33:24;5.83;;;1.40;;
20122;SDS011;10222;50.848;4.336;2023-02-26T00:35:55;3.70;;;1.30;;
20122;SDS011;10222;50.848;4.336;2023-02-26T00:38:29;3.23;;;1.50;;
20122;SDS011;10222;50.848;4.336;2023-02-26T00:40:58;4.63;;;1.50;;
20122;SDS011;10222;50.848;4.336;2023-02-26T00:43:26;2.40;;;1.37;;
20122;SDS011;10222;50.848;4.336;2023-02-26T00:51:18;5.43;;;1.77;;
20122;SDS011;10222;50.848;4.336;2023-02-26T00:53:48;2.83;;;1.40;;
20122;SDS011;10222;50.848;4.336;2023-02-26T00:56:18;4.10;;;1.33;;
20122;SDS011;10222;50.848;4.336;2023-02-26T00:58:47;4.43;;;1.20;;
20122;SDS011;10222;50.848;4.336;2023-02-26T01:01:16;2.97;;;1.30;;
20122;SDS011;10222;50.848;4.336;2023-02-26T01:03:45;6.90;;;1.87;;
20122;SDS011;10222;50.848;4.336;2023-02-26T01:08:46;3.27;;;1.37;;
20122;SDS011;10222;50.848;4.336;2023-02-26T01:11:15;6.23;;;1.60;;
20122;SDS011;10222;50.848;4.336;2023-02-26T01:13:48;1.13;;;1.00;;
20122;SDS011;10222;50.848;4.336;2023-02-26T01:16:20;7.10;;;1.40;;
20122;SDS011;10222;50.848;4.336;2023-02-26T01:18:55;4.20;;;1.40;;
20122;SDS011;10222;50.848;4.336;2023-02-26T01:21:34;3.83;;;1.40;;
20122;SDS011;10222;50.848;4.336;2023-02-26T01:24:02;5.07;;;1.40;;
20122;SDS011;10222;50.848;4.336;2023-02-26T01:26:30;3.27;;;1.73;;
20122;SDS011;10222;50.848;4.336;2023-02-26T01:34:41;3.70;;;1.60;;
20122;SDS011;10222;50.848;4.336;2023-02-26T01:37:48;6.50;;;1.60;;
20122;SDS011;10222;50.848;4.336;2023-02-26T01:40:00;2.47;;;1.43;;
20122;SDS011;10222;50.848;4.336;2023-02-26T01:45:04;3.57;;;1.13;;
20122;SDS011;10222;50.848;4.336;2023-02-26T01:47:53;3.77;;;1.53;;
20122;SDS011;10222;50.848;4.336;2023-02-26T01:50:22;5.43;;;2.00;;
20122;SDS011;10222;50.848;4.336;2023-02-26T01:55:26;11.57;;;2.13;;
20122;SDS011;10222;50.848;4.336;2023-02-26T01:57:54;2.90;;;1.37;;
20122;SDS011;10222;50.848;4.336;2023-02-26T02:00:22;3.73;;;1.67;;
20122;SDS011;10222;50.848;4.336;2023-02-26T02:02:52;5.00;;;1.23;;
20122;SDS011;10222;50.848;4.336;2023-02-26T02:05:24;5.87;;;1.60;;
20122;SDS011;10222;50.848;4.336;2023-02-26T02:07:53;10.33;;;1.77;;
20122;SDS011;10222;50.848;4.336;2023-02-26T02:10:20;5.07;;;1.20;;
20122;SDS011;10222;50.848;4.336;2023-02-26T02:13:32;2.33;;;1.20;;
20122;SDS011;10222;50.848;4.336;2023-02-26T02:15:45;2.90;;;1.20;;
20122;SDS011;10222;50.848;4.336;2023-02-26T02:32:14;5.90;;;1.17;;
20122;SDS011;10222;50.848;4.336;2023-02-26T02:37:49;1.80;;;0.80;;
20122;SDS011;10222;50.848;4.336;2023-02-26T02:40:28;2.47;;;1.43;;
20122;SDS011;10222;50.848;4.336;2023-02-26T02:43:15;5.53;;;1.27;;
20122;SDS011;10222;50.848;4.336;2023-02-26T02:48:28;4.40;;;1.13;;
20122;SDS011;10222;50.848;4.336;2023-02-26T02:50:59;2.60;;;1.17;;
20122;SDS011;10222;50.848;4.336;2023-02-26T02:53:36;1.60;;;1.10;;
20122;SDS011;10222;50.848;4.336;2023-02-26T02:56:17;7.33;;;1.53;;
20122;SDS011;10222;50.848;4.336;2023-02-26T02:58:50;5.17;;;1.30;;
20122;SDS011;10222;50.848;4.336;2023-02-26T03:03:55;3.30;;;1.00;;
20122;SDS011;10222;50.848;4.336;2023-02-26T03:06:25;2.47;;;1.17;;
20122;SDS011;10222;50.848;4.336;2023-02-26T03:11:23;5.07;;;1.43;;
20122;SDS011;10222;50.848;4.336;2023-02-26T03:22:00;3.27;;;1.23;;
20122;SDS011;10222;50.848;4.336;2023-02-26T03:24:31;5.90;;;1.13;;
20122;SDS011;10222;50.848;4.336;2023-02-26T03:27:06;7.60;;;1.43;;
20122;SDS011;10222;50.848;4.336;2023-02-26T03:32:46;2.63;;;0.67;;
20122;SDS011;10222;50.848;4.336;2023-02-26T03:37:49;3.33;;;1.17;;
20122;SDS011;10222;50.848;4.336;2023-02-26T03:40:22;3.87;;;1.00;;
20122;SDS011;10222;50.848;4.336;2023-02-26T03:42:54;2.90;;;1.20;;
20122;SDS011;10222;50.848;4.336;2023-02-26T03:45:32;7.23;;;1.00;;
20122;SDS011;10222;50.848;4.336;2023-02-26T03:50:35;2.83;;;1.03;;
20122;SDS011;10222;50.848;4.336;2023-02-26T03:53:04;3.87;;;0.90;;
20122;SDS011;10222;50.848;4.336;2023-02-26T03:55:41;3.07;;;1.00;;
20122;SDS011;10222;50.848;4.336;2023-02-26T03:58:09;1.40;;;1.07;;
20122;SDS011;10222;50.848;4.336;2023-02-26T04:00:35;0.87;;;0.60;;
20122;SDS011;10222;50.848;4.336;2023-02-26T04:05:47;3.67;;;0.80;;
20122;SDS011;10222;50.848;4.336;2023-02-26T04:08:20;2.10;;;0.87;;
20122;SDS011;10222;50.848;4.336;2023-02-26T04:10:57;2.37;;;0.63;;
20122;SDS011;10222;50.848;4.336;2023-02-26T04:13:25;2.87;;;1.27;;
20122;SDS011;10222;50.848;4.336;2023-02-26T04:15:53;4.10;;;1.10;;
20122;SDS011;10222;50.848;4.336;2023-02-26T04:18:20;2.10;;;0.93;;
20122;SDS011;10222;50.848;4.336;2023-02-26T04:20:54;5.00;;;1.10;;
20122;SDS011;10222;50.848;4.336;2023-02-26T04:23:21;1.37;;;0.80;;
20122;SDS011;10222;50.848;4.336;2023-02-26T04:25:54;2.10;;;1.37;;
20122;SDS011;10222;50.848;4.336;2023-02-26T04:28:22;1.00;;;0.90;;
20122;SDS011;10222;50.848;4.336;2023-02-26T04:30:49;1.07;;;0.60;;
20122;SDS011;10222;50.848;4.336;2023-02-26T04:33:16;5.13;;;1.50;;
20122;SDS011;10222;50.848;4.336;2023-02-26T04:35:46;2.60;;;1.00;;
20122;SDS011;10222;50.848;4.336;2023-02-26T04:40:43;4.00;;;0.70;;
20122;SDS011;10222;50.848;4.336;2023-02-26T04:43:15;4.63;;;1.17;;
20122;SDS011;10222;50.848;4.336;2023-02-26T04:45:44;2.73;;;0.80;;
20122;SDS011;10222;50.848;4.336;2023-02-26T04:48:13;0.70;;;0.70;;
20122;SDS011;10222;50.848;4.336;2023-02-26T04:50:41;2.63;;;1.17;;
20122;SDS011;10222;50.848;4.336;2023-02-26T04:53:10;6.23;;;1.20;;
20122;SDS011;10222;50.848;4.336;2023-02-26T04:58:11;1.47;;;0.93;;
20122;SDS011;10222;50.848;4.336;2023-02-26T05:03:06;3.37;;;0.90;;
20122;SDS011;10222;50.848;4.336;2023-02-26T05:05:34;1.50;;;1.17;;
20122;SDS011;10222;50.848;4.336;2023-02-26T05:08:00;5.03;;;1.23;;
20122;SDS011;10222;50.848;4.336;2023-02-26T05:12:55;6.07;;;1.97;;
20122;SDS011;10222;50.848;4.336;2023-02-26T05:15:24;1.23;;;0.67;;
20122;SDS011;10222;50.848;4.336;2023-02-26T05:17:52;1.27;;;0.83;;
20122;SDS011;10222;50.848;4.336;2023-02-26T05:20:21;4.87;;;1.07;;
20122;SDS011;10222;50.848;4.336;2023-02-26T05:22:50;2.93;;;0.90;;
20122;SDS011;10222;50.848;4.336;2023-02-26T05:25:20;2.23;;;0.83;;
20122;SDS011;10222;50.848;4.336;2023-02-26T05:27:47;5.10;;;1.60;;
20122;SDS011;10222;50.848;4.336;2023-02-26T05:30:20;0.87;;;0.50;;
20122;SDS011;10222;50.848;4.336;2023-02-26T05:32:46;5.17;;;0.80;;
20122;SDS011;10222;50.848;4.336;2023-02-26T05:35:12;1.47;;;0.70;;
20122;SDS011;10222;50.848;4.336;2023-02-26T05:37:41;3.13;;;0.73;;
20122;SDS011;10222;50.848;4.336;2023-02-26T05:40:08;1.53;;;0.87;;
20122;SDS011;10222;50.848;4.336;2023-02-26T05:42:35;1.53;;;0.90;;
20122;SDS011;10222;50.848;4.336;2023-02-26T05:45:03;2.67;;;1.07;;
20122;SDS011;10222;50.848;4.336;2023-02-26T05:50:02;2.93;;;1.60;;
20122;SDS011;10222;50.848;4.336;2023-02-26T05:52:32;2.73;;;0.70;;
20122;SDS011;10222;50.848;4.336;2023-02-26T05:54:59;0.97;;;0.57;;
20122;SDS011;10222;50.848;4.336;2023-02-26T05:57:28;2.83;;;0.77;;
20122;SDS011;10222;50.848;4.336;2023-02-26T05:59:56;0.90;;;0.83;;
20122;SDS011;10222;50.848;4.336;2023-02-26T06:02:25;4.93;;;0.90;;
20122;SDS011;10222;50.848;4.336;2023-02-26T06:07:24;7.33;;;1.20;;
20122;SDS011;10222;50.848;4.336;2023-02-26T06:12:19;2.83;;;0.63;;
20122;SDS011;10222;50.848;4.336;2023-02-26T06:14:48;5.73;;;0.73;;
20122;SDS011;10222;50.848;4.336;2023-02-26T06:17:17;0.83;;;0.83;;
20122;SDS011;10222;50.848;4.336;2023-02-26T06:19:46;0.73;;;0.60;;
20122;SDS011;10222;50.848;4.336;2023-02-26T06:22:12;2.10;;;0.87;;
20122;SDS011;10222;50.848;4.336;2023-02-26T06:24:41;1.83;;;0.83;;
20122;SDS011;10222;50.848;4.336;2023-02-26T06:27:08;3.60;;;0.90;;
20122;SDS011;10222;50.848;4.336;2023-02-26T06:29:36;0.67;;;0.63;;
20122;SDS011;10222;50.848;4.336;2023-02-26T06:32:11;1.70;;;0.67;;
20122;SDS011;10222;50.848;4.336;2023-02-26T06:37:08;2.00;;;0.70;;
20122;SDS011;10222;50.848;4.336;2023-02-26T06:39:40;1.17;;;0.80;;
20122;SDS011;10222;50.848;4.336;2023-02-26T06:42:08;0.60;;;0.60;;
20122;SDS011;10222;50.848;4.336;2023-02-26T06:44:37;0.63;;;0.57;;
20122;SDS011;10222;50.848;4.336;2023-02-26T06:47:06;1.57;;;0.47;;
20122;SDS011;10222;50.848;4.336;2023-02-26T06:49:35;2.50;;;0.73;;
20122;SDS011;10222;50.848;4.336;2023-02-26T06:52:01;4.27;;;0.77;;
20122;SDS011;10222;50.848;4.336;2023-02-26T06:54:30;2.37;;;0.93;;
20122;SDS011;10222;50.848;4.336;2023-02-26T06:56:56;1.13;;;0.73;;
20122;SDS011;10222;50.848;4.336;2023-02-26T07:01:54;4.57;;;0.87;;
20122;SDS011;10222;50.848;4.336;2023-02-26T07:04:24;0.80;;;0.60;;
20122;SDS011;10222;50.848;4.336;2023-02-26T07:09:19;1.10;;;0.60;;
20122;SDS011;10222;50.848;4.336;2023-02-26T07:11:48;0.93;;;0.60;;
20122;SDS011;10222;50.848;4.336;2023-02-26T07:14:17;0.83;;;0.70;;
20122;SDS011;10222;50.848;4.336;2023-02-26T07:16:49;3.43;;;1.47;;
20122;SDS011;10222;50.848;4.336;2023-02-26T07:19:18;3.60;;;1.00;;
20122;SDS011;10222;50.848;4.336;2023-02-26T07:21:55;2.97;;;0.77;;
20122;SDS011;10222;50.848;4.336;2023-02-26T07:24:22;0.87;;;0.63;;
20122;SDS011;10222;50.848;4.336;2023-02-26T07:26:51;2.93;;;0.57;;
20122;SDS011;10222;50.848;4.336;2023-02-26T07:31:49;0.70;;;0.70;;
20122;SDS011;10222;50.848;4.336;2023-02-26T07:34:17;2.20;;;0.63;;
20122;SDS011;10222;50.848;4.336;2023-02-26T07:36:46;1.07;;;0.63;;
20122;SDS011;10222;50.848;4.336;2023-02-26T07:39:18;3.97;;;0.83;;
20122;SDS011;10222;50.848;4.336;2023-02-26T07:41:47;1.17;;;0.50;;
20122;SDS011;10222;50.848;4.336;2023-02-26T07:44:16;1.37;;;1.00;;
20122;SDS011;10222;50.848;4.336;2023-02-26T07:49:14;2.53;;;1.57;;
20122;SDS011;10222;50.848;4.336;2023-02-26T07:51:41;3.07;;;0.90;;
20122;SDS011;10222;50.848;4.336;2023-02-26T07:54:11;1.27;;;0.50;;
20122;SDS011;10222;50.848;4.336;2023-02-26T07:56:39;4.63;;;0.90;;
20122;SDS011;10222;50.848;4.336;2023-02-26T07:59:10;1.23;;;0.67;;
20122;SDS011;10222;50.848;4.336;2023-02-26T08:01:38;4.87;;;1.17;;
20122;SDS011;10222;50.848;4.336;2023-02-26T08:04:04;1.27;;;0.80;;
20122;SDS011;10222;50.848;4.336;2023-02-26T08:06:36;1.83;;;1.07;;
20122;SDS011;10222;50.848;4.336;2023-02-26T08:09:05;0.93;;;0.80;;
20122;SDS011;10222;50.848;4.336;2023-02-26T08:11:31;4.43;;;1.03;;
20122;SDS011;10222;50.848;4.336;2023-02-26T08:14:04;1.13;;;0.60;;
20122;SDS011;10222;50.848;4.336;2023-02-26T08:16:33;2.43;;;0.83;;
20122;SDS011;10222;50.848;4.336;2023-02-26T08:19:00;0.60;;;0.50;;
20122;SDS011;10222;50.848;4.336;2023-02-26T08:21:26;1.13;;;0.67;;
20122;SDS011;10222;50.848;4.336;2023-02-26T08:23:55;0.83;;;0.70;;
20122;SDS011;10222;50.848;4.336;2023-02-26T08:26:24;0.60;;;0.50;;
20122;SDS011;10222;50.848;4.336;2023-02-26T08:28:53;4.50;;;0.70;;
20122;SDS011;10222;50.848;4.336;2023-02-26T08:31:25;1.67;;;0.80;;
20122;SDS011;10222;50.848;4.336;2023-02-26T08:33:52;2.93;;;0.83;;
20122;SDS011;10222;50.848;4.336;2023-02-26T08:36:22;5.37;;;0.97;;
20122;SDS011;10222;50.848;4.336;2023-02-26T08:41:21;9.53;;;0.90;;
20122;SDS011;10222;50.848;4.336;2023-02-26T08:46:18;2.93;;;0.73;;
20122;SDS011;10222;50.848;4.336;2023-02-26T08:48:45;1.47;;;0.67;;
20122;SDS011;10222;50.848;4.336;2023-02-26T08:51:15;3.90;;;0.83;;
20122;SDS011;10222;50.848;4.336;2023-02-26T08:53:41;4.60;;;1.10;;
20122;SDS011;10222;50.848;4.336;2023-02-26T08:56:12;0.83;;;0.83;;
20122;SDS011;10222;50.848;4.336;2023-02-26T08:58:40;2.53;;;0.73;;
20122;SDS011;10222;50.848;4.336;2023-02-26T09:01:09;4.77;;;0.93;;
20122;SDS011;10222;50.848;4.336;2023-02-26T09:03:36;1.20;;;0.50;;
20122;SDS011;10222;50.848;4.336;2023-02-26T09:06:05;1.93;;;0.50;;
20122;SDS011;10222;50.848;4.336;2023-02-26T09:08:37;2.20;;;0.50;;
20122;SDS011;10222;50.848;4.336;2023-02-26T09:11:03;4.50;;;1.07;;
20122;SDS011;10222;50.848;4.336;2023-02-26T09:13:31;1.90;;;0.70;;
20122;SDS011;10222;50.848;4.336;2023-02-26T09:15:59;2.80;;;0.77;;
20122;SDS011;10222;50.848;4.336;2023-02-26T09:18:25;0.63;;;0.63;;
20122;SDS011;10222;50.848;4.336;2023-02-26T09:20:54;2.47;;;1.13;;
20122;SDS011;10222;50.848;4.336;2023-02-26T09:23:22;2.73;;;0.60;;
20122;SDS011;10222;50.848;4.336;2023-02-26T09:25:52;1.90;;;0.53;;
20122;SDS011;10222;50.848;4.336;2023-02-26T09:30:50;2.20;;;0.70;;
20122;SDS011;10222;50.848;4.336;2023-02-26T09:35:47;1.73;;;1.10;;
20122;SDS011;10222;50.848;4.336;2023-02-26T09:38:14;2.43;;;0.60;;
20122;SDS011;10222;50.848;4.336;2023-02-26T09:40:46;0.80;;;0.60;;
20122;SDS011;10222;50.848;4.336;2023-02-26T09:45:46;2.03;;;0.50;;
20122;SDS011;10222;50.848;4.336;2023-02-26T09:48:16;2.93;;;0.87;;
20122;SDS011;10222;50.848;4.336;2023-02-26T09:50:45;0.60;;;0.60;;
20122;SDS011;10222;50.848;4.336;2023-02-26T09:55:38;0.83;;;0.30;;
20122;SDS011;10222;50.848;4.336;2023-02-26T09:58:12;0.67;;;0.57;;
20122;SDS011;10222;50.848;4.336;2023-02-26T10:00:42;1.47;;;0.70;;
20122;SDS011;10222;50.848;4.336;2023-02-26T10:03:26;0.83;;;0.50;;
20122;SDS011;10222;50.848;4.336;2023-02-26T10:08:21;0.70;;;0.60;;
20122;SDS011;10222;50.848;4.336;2023-02-26T10:13:30;1.03;;;0.60;;
20122;SDS011;10222;50.848;4.336;2023-02-26T10:15:59;0.53;;;0.50;;
20122;SDS011;10222;50.848;4.336;2023-02-26T10:18:29;0.77;;;0.57;;
20122;SDS011;10222;50.848;4.336;2023-02-26T10:23:36;2.13;;;0.50;;
20122;SDS011;10222;50.848;4.336;2023-02-26T10:31:35;0.50;;;0.50;;
20122;SDS011;10222;50.848;4.336;2023-02-26T10:37:16;0.33;;;0.33;;
20122;SDS011;10222;50.848;4.336;2023-02-26T10:41:56;0.77;;;0.40;;
20122;SDS011;10222;50.848;4.336;2023-02-26T10:44:26;0.83;;;0.50;;
20122;SDS011;10222;50.848;4.336;2023-02-26T10:46:59;1.27;;;0.60;;
20122;SDS011;10222;50.848;4.336;2023-02-26T10:49:49;2.33;;;0.43;;
20122;SDS011;10222;50.848;4.336;2023-02-26T10:52:17;2.83;;;0.60;;
20122;SDS011;10222;50.848;4.336;2023-02-26T10:54:46;2.33;;;1.00;;
20122;SDS011;10222;50.848;4.336;2023-02-26T10:57:20;0.90;;;0.87;;
20122;SDS011;10222;50.848;4.336;2023-02-26T10:59:47;1.37;;;0.47;;
20122;SDS011;10222;50.848;4.336;2023-02-26T11:04:58;2.13;;;0.60;;
20122;SDS011;10222;50.848;4.336;2023-02-26T11:07:25;3.57;;;0.63;;
20122;SDS011;10222;50.848;4.336;2023-02-26T11:09:53;1.17;;;0.53;;
20122;SDS011;10222;50.848;4.336;2023-02-26T11:12:20;1.63;;;0.40;;
20122;SDS011;10222;50.848;4.336;2023-02-26T11:14:48;0.37;;;0.37;;
20122;SDS011;10222;50.848;4.336;2023-02-26T11:19:41;0.90;;;0.50;;
20122;SDS011;10222;50.848;4.336;2023-02-26T11:22:13;1.80;;;0.70;;
20122;SDS011;10222;50.848;4.336;2023-02-26T11:24:41;2.37;;;0.97;;
20122;SDS011;10222;50.848;4.336;2023-02-26T11:27:11;0.37;;;0.37;;
20122;SDS011;10222;50.848;4.336;2023-02-26T11:29:41;0.77;;;0.40;;
20122;SDS011;10222;50.848;4.336;2023-02-26T11:32:18;1.80;;;0.50;;
20122;SDS011;10222;50.848;4.336;2023-02-26T11:34:48;6.37;;;0.50;;
20122;SDS011;10222;50.848;4.336;2023-02-26T11:37:19;0.93;;;0.40;;
20122;SDS011;10222;50.848;4.336;2023-02-26T11:39:46;2.37;;;1.33;;
20122;SDS011;10222;50.848;4.336;2023-02-26T11:42:12;2.83;;;0.90;;
20122;SDS011;10222;50.848;4.336;2023-02-26T11:44:40;1.53;;;0.60;;
20122;SDS011;10222;50.848;4.336;2023-02-26T11:47:11;1.23;;;0.40;;
20122;SDS011;10222;50.848;4.336;2023-02-26T11:49:40;1.40;;;0.50;;
20122;SDS011;10222;50.848;4.336;2023-02-26T11:54:37;2.63;;;0.80;;
20122;SDS011;10222;50.848;4.336;2023-02-26T11:57:10;1.00;;;0.70;;
20122;SDS011;10222;50.848;4.336;2023-02-26T11:59:39;0.87;;;0.57;;
20122;SDS011;10222;50.848;4.336;2023-02-26T12:02:12;0.63;;;0.30;;
20122;SDS011;10222;50.848;4.336;2023-02-26T12:04:42;0.93;;;0.50;;
20122;SDS011;10222;50.848;4.336;2023-02-26T12:07:12;1.57;;;0.50;;
20122;SDS011;10222;50.848;4.336;2023-02-26T12:09:39;0.30;;;0.30;;
20122;SDS011;10222;50.848;4.336;2023-02-26T12:19:59;1.70;;;0.70;;
20122;SDS011;10222;50.848;4.336;2023-02-26T12:30:49;1.80;;;0.43;;
20122;SDS011;10222;50.848;4.336;2023-02-26T12:41:02;1.33;;;0.40;;
20122;SDS011;10222;50.848;4.336;2023-02-26T12:43:47;0.37;;;0.37;;
20122;SDS011;10222;50.848;4.336;2023-02-26T12:56:19;4.43;;;1.27;;
20122;SDS011;10222;50.848;4.336;2023-02-26T13:11:47;0.97;;;0.50;;
20122;SDS011;10222;50.848;4.336;2023-02-26T13:17:05;1.00;;;0.70;;
20122;SDS011;10222;50.848;4.336;2023-02-26T13:22:00;0.63;;;0.43;;
20122;SDS011;10222;50.848;4.336;2023-02-26T13:24:34;2.00;;;0.50;;
20122;SDS011;10222;50.848;4.336;2023-02-26T13:27:01;5.40;;;0.70;;
20122;SDS011;10222;50.848;4.336;2023-02-26T13:29:31;3.40;;;0.50;;
20122;SDS011;10222;50.848;4.336;2023-02-26T13:31:58;2.10;;;0.50;;
20122;SDS011;10222;50.848;4.336;2023-02-26T13:34:30;1.67;;;1.13;;
20122;SDS011;10222;50.848;4.336;2023-02-26T13:36:58;0.40;;;0.40;;
20122;SDS011;10222;50.848;4.336;2023-02-26T13:39:40;0.87;;;0.47;;
20122;SDS011;10222;50.848;4.336;2023-02-26T13:52:32;0.40;;;0.40;;
20122;SDS011;10222;50.848;4.336;2023-02-26T13:55:00;1.00;;;0.50;;
20122;SDS011;10222;50.848;4.336;2023-02-26T13:57:41;1.93;;;0.40;;
20122;SDS011;10222;50.848;4.336;2023-02-26T14:00:10;3.23;;;0.60;;
20122;SDS011;10222;50.848;4.336;2023-02-26T14:02:48;1.00;;;0.60;;
20122;SDS011;10222;50.848;4.336;2023-02-26T14:05:31;0.47;;;0.30;;
20122;SDS011;10222;50.848;4.336;2023-02-26T14:10:25;0.73;;;0.73;;
20122;SDS011;10222;50.848;4.336;2023-02-26T14:13:01;0.57;;;0.40;;
20122;SDS011;10222;50.848;4.336;2023-02-26T14:15:35;0.63;;;0.40;;
20122;SDS011;10222;50.848;4.336;2023-02-26T14:18:04;0.63;;;0.40;;
20122;SDS011;10222;50.848;4.336;2023-02-26T14:20:31;0.73;;;0.30;;
20122;SDS011;10222;50.848;4.336;2023-02-26T14:25:44;0.57;;;0.30;;
20122;SDS011;10222;50.848;4.336;2023-02-26T14:30:46;0.60;;;0.40;;
20122;SDS011;10222;50.848;4.336;2023-02-26T14:33:14;1.60;;;0.30;;
20122;SDS011;10222;50.848;4.336;2023-02-26T14:35:48;1.50;;;0.70;;
20122;SDS011;10222;50.848;4.336;2023-02-26T14:40:46;2.27;;;0.70;;
20122;SDS011;10222;50.848;4.336;2023-02-26T14:43:34;2.00;;;0.77;;
20122;SDS011;10222;50.848;4.336;2023-02-26T14:46:01;0.60;;;0.50;;
20122;SDS011;10222;50.848;4.336;2023-02-26T14:48:28;0.83;;;0.30;;
20122;SDS011;10222;50.848;4.336;2023-02-26T14:56:15;1.20;;;0.40;;
20122;SDS011;10222;50.848;4.336;2023-02-26T15:19:17;2.27;;;0.47;;
20122;SDS011;10222;50.848;4.336;2023-02-26T15:22:06;0.70;;;0.37;;
20122;SDS011;10222;50.848;4.336;2023-02-26T15:24:36;0.70;;;0.50;;
20122;SDS011;10222;50.848;4.336;2023-02-26T15:27:03;0.97;;;0.50;;
20122;SDS011;10222;50.848;4.336;2023-02-26T15:29:31;1.60;;;0.50;;
20122;SDS011;10222;50.848;4.336;2023-02-26T15:32:00;0.70;;;0.57;;
20122;SDS011;10222;50.848;4.336;2023-02-26T15:34:29;0.70;;;0.57;;
20122;SDS011;10222;50.848;4.336;2023-02-26T15:36:57;3.33;;;0.60;;
20122;SDS011;10222;50.848;4.336;2023-02-26T15:39:24;0.40;;;0.40;;
20122;SDS011;10222;50.848;4.336;2023-02-26T15:41:51;1.03;;;0.53;;
20122;SDS011;10222;50.848;4.336;2023-02-26T15:44:22;1.70;;;0.43;;
20122;SDS011;10222;50.848;4.336;2023-02-26T15:46:52;1.03;;;0.53;;
20122;SDS011;10222;50.848;4.336;2023-02-26T15:51:46;0.90;;;0.50;;
20122;SDS011;10222;50.848;4.336;2023-02-26T15:54:15;2.57;;;0.60;;
20122;SDS011;10222;50.848;4.336;2023-02-26T15:56:42;0.80;;;0.53;;
20122;SDS011;10222;50.848;4.336;2023-02-26T15:59:10;0.70;;;0.47;;
20122;SDS011;10222;50.848;4.336;2023-02-26T16:01:38;1.27;;;0.70;;
20122;SDS011;10222;50.848;4.336;2023-02-26T16:04:06;1.30;;;0.87;;
20122;SDS011;10222;50.848;4.336;2023-02-26T16:06:38;0.50;;;0.50;;
20122;SDS011;10222;50.848;4.336;2023-02-26T16:09:05;0.40;;;0.40;;
20122;SDS011;10222;50.848;4.336;2023-02-26T16:11:33;0.77;;;0.67;;
20122;SDS011;10222;50.848;4.336;2023-02-26T16:14:00;1.20;;;0.70;;
20122;SDS011;10222;50.848;4.336;2023-02-26T16:16:27;2.50;;;0.63;;
20122;SDS011;10222;50.848;4.336;2023-02-26T16:18:54;0.73;;;0.60;;
20122;SDS011;10222;50.848;4.336;2023-02-26T16:21:31;1.20;;;0.40;;
20122;SDS011;10222;50.848;4.336;2023-02-26T16:23:59;0.73;;;0.50;;
20122;SDS011;10222;50.848;4.336;2023-02-26T16:26:30;1.53;;;0.80;;
20122;SDS011;10222;50.848;4.336;2023-02-26T16:28:59;3.50;;;0.83;;
20122;SDS011;10222;50.848;4.336;2023-02-26T16:31:26;1.50;;;0.50;;
20122;SDS011;10222;50.848;4.336;2023-02-26T16:33:55;0.90;;;0.60;;
20122;SDS011;10222;50.848;4.336;2023-02-26T16:41:45;1.10;;;0.60;;
20122;SDS011;10222;50.848;4.336;2023-02-26T16:46:58;1.20;;;0.93;;
20122;SDS011;10222;50.848;4.336;2023-02-26T16:49:39;1.53;;;0.73;;
20122;SDS011;10222;50.848;4.336;2023-02-26T16:52:06;1.20;;;0.63;;
20122;SDS011;10222;50.848;4.336;2023-02-26T16:54:39;0.60;;;0.60;;
20122;SDS011;10222;50.848;4.336;2023-02-26T16:59:58;1.57;;;0.70;;
20122;SDS011;10222;50.848;4.336;2023-02-26T17:02:31;1.83;;;0.80;;
20122;SDS011;10222;50.848;4.336;2023-02-26T17:05:14;0.90;;;0.53;;
20122;SDS011;10222;50.848;4.336;2023-02-26T17:10:33;2.00;;;0.80;;
20122;SDS011;10222;50.848;4.336;2023-02-26T17:13:12;1.37;;;0.80;;
20122;SDS011;10222;50.848;4.336;2023-02-26T17:15:42;3.30;;;1.00;;
20122;SDS011;10222;50.848;4.336;2023-02-26T17:18:24;1.03;;;0.70;;
20122;SDS011;10222;50.848;4.336;2023-02-26T17:20:51;0.90;;;0.60;;
20122;SDS011;10222;50.848;4.336;2023-02-26T17:23:25;1.40;;;0.80;;
20122;SDS011;10222;50.848;4.336;2023-02-26T17:25:57;1.93;;;0.90;;
20122;SDS011;10222;50.848;4.336;2023-02-26T17:28:39;1.13;;;0.70;;
20122;SDS011;10222;50.848;4.336;2023-02-26T17:33:52;1.57;;;0.80;;
20122;SDS011;10222;50.848;4.336;2023-02-26T17:36:18;2.30;;;1.07;;
20122;SDS011;10222;50.848;4.336;2023-02-26T17:38:48;1.13;;;0.80;;
20122;SDS011;10222;50.848;4.336;2023-02-26T17:41:15;3.27;;;1.07;;
20122;SDS011;10222;50.848;4.336;2023-02-26T17:43:44;0.90;;;0.70;;
20122;SDS011;10222;50.848;4.336;2023-02-26T17:46:11;4.17;;;1.10;;
20122;SDS011;10222;50.848;4.336;2023-02-26T17:48:40;0.90;;;0.80;;
20122;SDS011;10222;50.848;4.336;2023-02-26T17:51:07;2.80;;;0.80;;
20122;SDS011;10222;50.848;4.336;2023-02-26T17:53:36;1.37;;;0.87;;
20122;SDS011;10222;50.848;4.336;2023-02-26T17:56:08;1.30;;;0.77;;
20122;SDS011;10222;50.848;4.336;2023-02-26T17:58:38;1.13;;;0.67;;
20122;SDS011;10222;50.848;4.336;2023-02-26T18:01:08;3.10;;;0.87;;
20122;SDS011;10222;50.848;4.336;2023-02-26T18:03:34;2.20;;;0.80;;
20122;SDS011;10222;50.848;4.336;2023-02-26T18:06:00;2.13;;;1.07;;
20122;SDS011;10222;50.848;4.336;2023-02-26T18:08:30;3.17;;;1.10;;
20122;SDS011;10222;50.848;4.336;2023-02-26T18:13:28;1.20;;;0.77;;
20122;SDS011;10222;50.848;4.336;2023-02-26T18:15:55;2.30;;;1.13;;
20122;SDS011;10222;50.848;4.336;2023-02-26T18:18:25;3.77;;;1.13;;
20122;SDS011;10222;50.848;4.336;2023-02-26T18:20:54;0.90;;;0.80;;
20122;SDS011;10222;50.848;4.336;2023-02-26T18:23:23;2.00;;;1.07;;
20122;SDS011;10222;50.848;4.336;2023-02-26T18:25:53;0.97;;;0.90;;
20122;SDS011;10222;50.848;4.336;2023-02-26T18:28:24;7.20;;;1.50;;
20122;SDS011;10222;50.848;4.336;2023-02-26T18:30:52;2.63;;;1.33;;
20122;SDS011;10222;50.848;4.336;2023-02-26T18:35:50;1.90;;;1.00;;
20122;SDS011;10222;50.848;4.336;2023-02-26T18:38:23;2.30;;;1.23;;
20122;SDS011;10222;50.848;4.336;2023-02-26T18:43:28;2.20;;;1.27;;
20122;SDS011;10222;50.848;4.336;2023-02-26T18:45:55;8.13;;;1.50;;
20122;SDS011;10222;50.848;4.336;2023-02-26T18:48:27;5.13;;;1.60;;
20122;SDS011;10222;50.848;4.336;2023-02-26T18:50:55;4.47;;;1.37;;
20122;SDS011;10222;50.848;4.336;2023-02-26T18:53:22;2.63;;;1.40;;
20122;SDS011;10222;50.848;4.336;2023-02-26T18:55:52;4.43;;;1.57;;
20122;SDS011;10222;50.848;4.336;2023-02-26T18:58:22;2.57;;;1.67;;
20122;SDS011;10222;50.848;4.336;2023-02-26T19:00:51;2.07;;;1.30;;
20122;SDS011;10222;50.848;4.336;2023-02-26T19:03:18;3.27;;;1.47;;
20122;SDS011;10222;50.848;4.336;2023-02-26T19:05:54;2.00;;;1.30;;
20122;SDS011;10222;50.848;4.336;2023-02-26T19:08:23;4.80;;;1.87;;
20122;SDS011;10222;50.848;4.336;2023-02-26T19:10:49;3.53;;;1.63;;
20122;SDS011;10222;50.848;4.336;2023-02-26T19:13:16;2.20;;;1.23;;
20122;SDS011;10222;50.848;4.336;2023-02-26T19:18:11;1.60;;;0.93;;
20122;SDS011;10222;50.848;4.336;2023-02-26T19:20:37;7.43;;;1.80;;
20122;SDS011;10222;50.848;4.336;2023-02-26T19:23:09;2.50;;;1.30;;
20122;SDS011;10222;50.848;4.336;2023-02-26T19:25:36;4.50;;;1.73;;
20122;SDS011;10222;50.848;4.336;2023-02-26T19:28:08;3.57;;;1.20;;
20122;SDS011;10222;50.848;4.336;2023-02-26T19:30:34;4.33;;;1.87;;